createdAt,value
2018-06-30T00:02:06.201Z,10.40
2018-06-30T00:04:40.597Z,10.40
2018-06-30T00:07:10.029Z,10.40
2018-06-30T00:09:39.567Z,10.50
2018-06-30T00:12:09.465Z,10.70
2018-06-30T00:14:39.396Z,10.80
2018-06-30T00:17:09.324Z,10.80
2018-06-30T00:19:38.805Z,10.80
2018-06-30T00:22:08.461Z,10.80
2018-06-30T00:24:37.795Z,10.80
2018-06-30T00:27:12.671Z,10.80
2018-06-30T00:29:42.565Z,10.70
2018-06-30T00:32:12.306Z,10.70
2018-06-30T00:34:42.217Z,10.60
2018-06-30T00:37:12.138Z,10.60
2018-06-30T00:39:42.240Z,10.70
2018-06-30T00:42:12.078Z,10.70
2018-06-30T00:44:41.885Z,10.70
2018-06-30T00:49:41.127Z,10.80
2018-06-30T00:52:10.975Z,10.80
2018-06-30T00:54:41.006Z,10.80
2018-06-30T00:57:10.807Z,10.90
2018-06-30T00:59:40.320Z,10.80
2018-06-30T01:02:09.827Z,10.90
2018-06-30T01:04:39.306Z,11.00
2018-06-30T01:07:08.876Z,11.00
2018-06-30T01:09:38.313Z,11.10
2018-06-30T01:12:07.831Z,11.20
2018-06-30T01:14:37.360Z,11.30
2018-06-30T01:17:07.288Z,11.30
2018-06-30T01:19:37.194Z,11.40
2018-06-30T01:22:07.225Z,11.40
2018-06-30T01:24:37.001Z,11.40
2018-06-30T01:27:07.053Z,11.30
2018-06-30T01:29:36.407Z,11.30
2018-06-30T01:32:06.350Z,11.30
2018-06-30T01:34:36.300Z,11.30
2018-06-30T01:37:06.344Z,11.10
2018-06-30T01:39:36.636Z,11.00
2018-06-30T01:42:06.525Z,11.00
2018-06-30T01:44:35.923Z,10.90
2018-06-30T01:47:05.396Z,10.90
2018-06-30T01:49:34.915Z,10.90
2018-06-30T01:52:04.551Z,11.00
2018-06-30T01:54:33.426Z,11.00
2018-06-30T01:57:03.006Z,10.90
2018-06-30T01:59:32.501Z,10.90
2018-06-30T02:02:02.086Z,10.90
2018-06-30T02:04:31.582Z,11.00
2018-06-30T02:07:01.148Z,11.00
2018-06-30T02:09:30.543Z,11.00
2018-06-30T02:12:00.081Z,10.90
2018-06-30T02:14:29.535Z,10.90
2018-06-30T02:16:59.044Z,10.90
2018-06-30T02:19:28.631Z,11.00
2018-06-30T02:21:58.197Z,11.40
2018-06-30T02:24:27.595Z,12.10
2018-06-30T02:26:57.078Z,12.80
2018-06-30T02:29:26.630Z,13.60
2018-06-30T02:31:56.085Z,14.50
2018-06-30T02:34:25.595Z,15.30
2018-06-30T02:36:55.520Z,16.20
2018-06-30T02:39:25.509Z,16.90
2018-06-30T02:42:09.735Z,17.50
2018-06-30T02:44:39.318Z,17.90
2018-06-30T02:47:08.717Z,18.20
2018-06-30T02:49:38.188Z,18.10
2018-06-30T02:52:07.730Z,18.10
2018-06-30T02:54:37.305Z,18.10
2018-06-30T02:57:06.739Z,18.10
2018-06-30T02:59:36.249Z,18.40
2018-06-30T03:02:05.753Z,18.70
2018-06-30T03:04:35.292Z,19.20
2018-06-30T03:07:04.762Z,19.80
2018-06-30T03:09:34.221Z,20.50
2018-06-30T03:12:03.780Z,21.10
2018-06-30T03:14:33.235Z,21.60
2018-06-30T03:17:02.809Z,21.90
2018-06-30T03:19:32.243Z,22.60
2018-06-30T03:22:01.840Z,23.10
2018-06-30T03:24:31.273Z,23.40
2018-06-30T03:27:01.178Z,23.80
2018-06-30T03:29:31.095Z,24.30
2018-06-30T03:32:01.067Z,24.60
2018-06-30T03:34:30.501Z,24.90
2018-06-30T03:36:59.609Z,25.20
2018-06-30T03:39:29.536Z,25.40
2018-06-30T03:41:59.277Z,25.50
2018-06-30T03:44:28.822Z,25.40
2018-06-30T03:46:58.427Z,25.60
2018-06-30T03:49:28.382Z,25.90
2018-06-30T03:51:58.351Z,26.00
2018-06-30T03:54:28.033Z,26.00
2018-06-30T03:56:57.986Z,26.10
2018-06-30T03:59:27.964Z,26.20
2018-06-30T04:01:57.533Z,26.30
2018-06-30T04:04:27.057Z,26.40
2018-06-30T04:06:56.548Z,26.40
2018-06-30T04:09:26.476Z,26.50
2018-06-30T04:11:56.359Z,26.60
2018-06-30T04:14:26.154Z,26.60
2018-06-30T04:16:56.042Z,26.40
2018-06-30T04:19:26.073Z,26.50
2018-06-30T04:21:55.657Z,26.20
2018-06-30T04:24:25.162Z,25.70
2018-06-30T04:26:54.895Z,25.40
2018-06-30T04:29:24.789Z,25.70
2018-06-30T04:31:54.610Z,25.30
2018-06-30T04:34:24.227Z,25.50
2018-06-30T04:36:54.138Z,25.20
2018-06-30T04:39:24.054Z,23.90
2018-06-30T04:41:53.294Z,24.20
2018-06-30T04:44:23.095Z,24.60
2018-06-30T04:46:52.979Z,25.10
2018-06-30T04:49:23.173Z,25.30
2018-06-30T04:51:53.078Z,25.10
2018-06-30T04:54:22.892Z,24.80
2018-06-30T04:56:52.733Z,25.20
2018-06-30T04:59:22.318Z,25.50
2018-06-30T05:01:52.270Z,25.60
2018-06-30T05:04:22.129Z,25.00
2018-06-30T05:06:52.068Z,24.20
2018-06-30T05:09:22.243Z,24.00
2018-06-30T05:11:52.307Z,23.60
2018-06-30T05:14:21.827Z,23.20
2018-06-30T05:16:52.547Z,22.90
2018-06-30T05:19:21.966Z,22.50
2018-06-30T05:21:51.963Z,22.40
2018-06-30T05:24:21.986Z,22.00
2018-06-30T05:26:51.602Z,22.50
2018-06-30T05:31:50.774Z,22.80
2018-06-30T05:34:20.696Z,22.80
2018-06-30T05:36:50.702Z,22.90
2018-06-30T05:39:20.347Z,23.10
2018-06-30T05:41:50.284Z,23.00
2018-06-30T05:44:20.370Z,22.60
2018-06-30T05:46:51.395Z,22.50
2018-06-30T05:49:21.432Z,21.90
2018-06-30T05:51:51.276Z,21.50
2018-06-30T05:54:20.859Z,21.30
2018-06-30T05:56:50.486Z,21.10
2018-06-30T05:59:20.315Z,21.00
2018-06-30T06:01:49.776Z,21.10
2018-06-30T06:04:19.248Z,20.90
2018-06-30T06:06:48.788Z,20.90
2018-06-30T06:09:18.690Z,20.80
2018-06-30T06:11:48.654Z,20.70
2018-06-30T06:14:17.414Z,20.10
2018-06-30T06:16:46.212Z,19.60
2018-06-30T06:19:15.008Z,19.20
2018-06-30T06:21:44.342Z,19.00
2018-06-30T06:24:14.074Z,18.70
2018-06-30T06:26:42.831Z,18.80
2018-06-30T06:29:11.703Z,18.70
2018-06-30T06:31:41.802Z,18.50
2018-06-30T06:34:11.714Z,18.20
2018-06-30T06:36:40.454Z,18.20
2018-06-30T06:39:10.266Z,18.40
2018-06-30T06:41:40.367Z,18.70
2018-06-30T06:44:09.265Z,18.40
2018-06-30T06:46:38.073Z,18.40
2018-06-30T06:49:07.893Z,18.20
2018-06-30T06:51:37.403Z,18.30
2018-06-30T06:54:06.201Z,18.50
2018-06-30T06:56:36.016Z,18.40
2018-06-30T06:59:05.978Z,18.50
2018-06-30T07:01:35.684Z,18.80
2018-06-30T07:04:04.468Z,18.80
2018-06-30T07:06:34.797Z,18.70
2018-06-30T07:09:04.246Z,18.70
2018-06-30T07:11:32.936Z,18.90
2018-06-30T07:14:03.938Z,19.10
2018-06-30T07:16:32.679Z,19.00
2018-06-30T07:19:01.396Z,19.00
2018-06-30T07:21:30.322Z,18.90
2018-06-30T07:23:59.088Z,18.80
2018-06-30T07:26:27.844Z,19.00
2018-06-30T07:28:56.673Z,19.10
2018-06-30T07:31:26.642Z,19.10
2018-06-30T07:33:55.417Z,19.20
2018-06-30T07:36:24.794Z,19.00
2018-06-30T07:38:53.514Z,19.10
2018-06-30T07:41:22.248Z,19.10
2018-06-30T07:43:50.978Z,19.10
2018-06-30T07:46:19.795Z,19.00
2018-06-30T07:48:48.603Z,19.20
2018-06-30T07:51:17.568Z,19.30
2018-06-30T07:53:46.449Z,19.50
2018-06-30T07:56:15.909Z,19.50
2018-06-30T07:58:44.756Z,19.40
2018-06-30T08:01:13.697Z,19.40
2018-06-30T08:03:43.075Z,19.50
2018-06-30T08:06:11.809Z,19.30
2018-06-30T08:08:40.685Z,19.30
2018-06-30T08:11:09.365Z,19.50
2018-06-30T08:13:38.175Z,19.70
2018-06-30T08:16:08.013Z,19.90
2018-06-30T08:18:36.857Z,20.20
2018-06-30T08:21:05.742Z,20.20
2018-06-30T08:23:34.634Z,20.10
2018-06-30T08:26:03.506Z,20.30
2018-06-30T08:28:32.317Z,20.30
2018-06-30T08:31:01.263Z,20.20
2018-06-30T08:33:30.021Z,20.00
2018-06-30T08:35:59.482Z,19.90
2018-06-30T08:38:28.976Z,19.60
2018-06-30T08:40:57.711Z,19.70
2018-06-30T08:43:27.573Z,19.80
2018-06-30T08:45:56.325Z,19.90
2018-06-30T08:48:25.117Z,19.90
2018-06-30T08:50:53.837Z,20.00
2018-06-30T08:55:52.003Z,20.30
2018-06-30T08:58:21.711Z,20.40
2018-06-30T09:00:51.166Z,20.50
2018-06-30T09:03:21.168Z,20.30
2018-06-30T09:05:50.048Z,20.30
2018-06-30T09:08:18.763Z,20.40
2018-06-30T09:10:48.804Z,20.70
2018-06-30T09:13:17.656Z,20.80
2018-06-30T09:15:46.542Z,20.90
2018-06-30T09:18:15.372Z,20.80
2018-06-30T09:20:44.124Z,20.70
2018-06-30T09:23:12.851Z,20.50
2018-06-30T09:25:41.608Z,20.30
2018-06-30T09:28:11.673Z,20.10
2018-06-30T09:30:40.414Z,20.00
2018-06-30T09:33:09.239Z,20.10
2018-06-30T09:35:38.027Z,20.30
2018-06-30T09:38:06.864Z,20.40
2018-06-30T09:40:35.807Z,20.40
2018-06-30T09:43:04.676Z,20.50
2018-06-30T09:45:33.430Z,20.50
2018-06-30T09:48:02.161Z,20.50
2018-06-30T09:50:31.892Z,20.20
2018-06-30T09:53:01.381Z,20.00
2018-06-30T09:55:30.073Z,19.90
2018-06-30T09:57:58.874Z,20.10
2018-06-30T10:00:33.060Z,20.40
2018-06-30T10:03:03.117Z,20.60
2018-06-30T10:05:32.860Z,20.70
2018-06-30T10:08:01.588Z,21.00
2018-06-30T10:10:31.614Z,20.90
2018-06-30T10:13:00.410Z,20.90
2018-06-30T10:15:29.950Z,20.80
2018-06-30T10:17:58.711Z,20.90
2018-06-30T10:20:28.421Z,20.90
2018-06-30T10:22:57.119Z,20.70
2018-06-30T10:25:25.914Z,20.40
2018-06-30T10:27:55.271Z,20.30
2018-06-30T10:30:24.023Z,20.40
2018-06-30T10:32:52.760Z,20.40
2018-06-30T10:35:22.592Z,20.60
2018-06-30T10:37:51.339Z,20.60
2018-06-30T10:40:20.135Z,20.50
2018-06-30T10:42:48.939Z,20.40
2018-06-30T10:45:17.692Z,20.30
2018-06-30T10:47:46.450Z,20.10
2018-06-30T10:50:15.227Z,20.20
2018-06-30T10:52:44.575Z,20.10
2018-06-30T10:55:14.135Z,20.10
2018-06-30T10:57:44.033Z,20.10
2018-06-30T11:00:12.782Z,20.10
2018-06-30T11:02:42.255Z,20.10
2018-06-30T11:05:11.526Z,20.00
2018-06-30T11:10:09.967Z,19.90
2018-06-30T11:12:39.170Z,19.90
2018-06-30T11:15:07.880Z,20.10
2018-06-30T11:17:36.780Z,20.20
2018-06-30T11:20:05.857Z,20.10
2018-06-30T11:22:34.690Z,20.20
2018-06-30T11:25:03.568Z,20.40
2018-06-30T11:27:32.408Z,20.60
2018-06-30T11:30:01.139Z,20.50
2018-06-30T11:32:30.537Z,20.70
2018-06-30T11:35:00.482Z,21.10
2018-06-30T11:37:29.210Z,21.30
2018-06-30T11:39:57.931Z,21.50
2018-06-30T11:42:26.678Z,21.70
2018-06-30T11:44:55.457Z,22.00
2018-06-30T11:47:24.176Z,22.30
2018-06-30T11:49:53.790Z,22.20
2018-06-30T11:52:22.742Z,22.00
2018-06-30T11:54:51.713Z,21.80
2018-06-30T11:57:20.532Z,21.50
2018-06-30T11:59:49.276Z,21.40
2018-06-30T12:02:18.057Z,21.20
2018-06-30T12:04:46.776Z,20.90
2018-06-30T12:07:15.491Z,20.60
2018-06-30T12:09:44.296Z,20.60
2018-06-30T12:12:13.832Z,20.60
2018-06-30T12:14:42.573Z,20.80
2018-06-30T12:17:11.327Z,21.00
2018-06-30T12:19:40.080Z,20.90
2018-06-30T12:22:08.817Z,20.70
2018-06-30T12:24:37.541Z,20.70
2018-06-30T12:27:06.994Z,20.80
2018-06-30T12:29:36.589Z,21.10
2018-06-30T12:32:05.381Z,21.40
2018-06-30T12:34:34.094Z,21.70
2018-06-30T12:37:02.830Z,22.00
2018-06-30T12:39:31.885Z,22.30
2018-06-30T12:42:00.672Z,22.20
2018-06-30T12:44:29.373Z,21.70
2018-06-30T12:46:58.125Z,21.30
2018-06-30T12:49:26.911Z,21.00
2018-06-30T12:51:55.638Z,20.60
2018-06-30T12:54:24.459Z,20.40
2018-06-30T12:56:53.289Z,20.10
2018-06-30T12:59:22.069Z,19.90
2018-06-30T13:01:50.786Z,19.90
2018-06-30T13:04:20.522Z,20.10
2018-06-30T13:06:49.258Z,20.10
2018-06-30T13:09:18.703Z,20.30
2018-06-30T13:11:47.481Z,20.50
2018-06-30T13:14:16.186Z,20.70
2018-06-30T13:16:44.931Z,21.00
2018-06-30T13:19:13.700Z,21.10
2018-06-30T13:21:42.398Z,21.20
2018-06-30T13:24:11.076Z,21.10
2018-06-30T13:26:40.695Z,21.30
2018-06-30T13:29:09.557Z,21.30
2018-06-30T13:31:39.350Z,21.20
2018-06-30T13:34:09.092Z,21.10
2018-06-30T13:36:37.836Z,21.00
2018-06-30T13:39:10.117Z,21.00
2018-06-30T13:41:39.459Z,21.20
2018-06-30T13:44:09.406Z,21.30
2018-06-30T13:46:38.173Z,21.50
2018-06-30T13:49:07.262Z,21.40
2018-06-30T13:51:36.908Z,21.50
2018-06-30T13:54:06.877Z,21.60
2018-06-30T13:56:35.655Z,21.70
2018-06-30T13:59:04.529Z,21.70
2018-06-30T14:01:33.402Z,21.60
2018-06-30T14:04:02.136Z,21.50
2018-06-30T14:06:31.816Z,21.40
2018-06-30T14:09:00.543Z,21.30
2018-06-30T14:11:29.263Z,21.10
2018-06-30T14:13:58.003Z,20.90
2018-06-30T14:16:26.813Z,20.90
2018-06-30T14:18:55.605Z,20.90
2018-06-30T14:21:24.385Z,20.80
2018-06-30T14:23:54.052Z,20.70
2018-06-30T14:26:22.846Z,20.80
2018-06-30T14:28:52.655Z,20.90
2018-06-30T14:31:22.144Z,21.20
2018-06-30T14:33:50.874Z,21.60
2018-06-30T14:36:19.668Z,21.80
2018-06-30T14:38:49.847Z,21.90
2018-06-30T14:41:19.790Z,22.00
2018-06-30T14:43:48.562Z,22.00
2018-06-30T14:46:17.370Z,21.70
2018-06-30T14:48:46.272Z,21.80
2018-06-30T14:51:15.776Z,21.50
2018-06-30T14:53:44.614Z,21.20
2018-06-30T14:56:13.347Z,20.80
2018-06-30T14:58:42.303Z,20.60
2018-06-30T15:01:12.051Z,20.50
2018-06-30T15:03:42.002Z,20.40
2018-06-30T15:06:10.763Z,20.40
2018-06-30T15:08:40.665Z,20.40
2018-06-30T15:11:10.124Z,20.30
2018-06-30T15:13:38.848Z,20.40
2018-06-30T15:16:08.298Z,20.50
2018-06-30T15:18:37.802Z,20.50
2018-06-30T15:21:07.117Z,20.60
2018-06-30T15:23:35.918Z,20.70
2018-06-30T15:26:04.819Z,20.80
2018-06-30T15:28:33.543Z,21.10
2018-06-30T15:31:02.296Z,21.10
2018-06-30T15:33:31.192Z,21.20
2018-06-30T15:36:00.811Z,21.00
2018-06-30T15:38:29.510Z,21.10
2018-06-30T15:40:58.300Z,20.90
2018-06-30T15:43:28.377Z,20.70
2018-06-30T15:45:57.132Z,20.70
2018-06-30T15:48:25.933Z,20.50
2018-06-30T15:50:55.913Z,20.40
2018-06-30T15:53:24.750Z,20.20
2018-06-30T15:55:53.478Z,20.10
2018-06-30T15:58:22.333Z,19.90
2018-06-30T16:00:51.058Z,19.90
2018-06-30T16:03:21.057Z,19.90
2018-06-30T16:05:50.636Z,20.00
2018-06-30T16:08:20.141Z,20.00
2018-06-30T16:10:49.644Z,20.10
2018-06-30T16:13:19.300Z,20.40
2018-06-30T16:15:48.010Z,20.40
2018-06-30T16:18:16.776Z,20.50
2018-06-30T16:23:14.899Z,20.90
2018-06-30T16:25:44.211Z,21.00
2018-06-30T16:28:13.689Z,20.90
2018-06-30T16:30:42.480Z,20.80
2018-06-30T16:33:11.209Z,20.70
2018-06-30T16:35:39.879Z,20.50
2018-06-30T16:38:08.660Z,20.30
2018-06-30T16:40:37.414Z,20.30
2018-06-30T16:43:07.634Z,20.30
2018-06-30T16:45:36.284Z,20.30
2018-06-30T16:48:05.042Z,20.40
2018-06-30T16:50:33.739Z,20.40
2018-06-30T16:53:02.519Z,20.30
2018-06-30T16:55:31.219Z,20.30
2018-06-30T16:57:59.963Z,20.30
2018-06-30T17:00:28.762Z,20.30
2018-06-30T17:02:57.552Z,20.30
2018-06-30T17:05:26.363Z,20.40
2018-06-30T17:07:56.370Z,20.50
2018-06-30T17:10:25.105Z,20.60
2018-06-30T17:12:53.891Z,20.60
2018-06-30T17:15:22.605Z,20.60
2018-06-30T17:17:51.357Z,20.60
2018-06-30T17:20:20.160Z,20.50
2018-06-30T17:22:50.155Z,20.40
2018-06-30T17:25:18.924Z,20.50
2018-06-30T17:27:47.735Z,20.50
2018-06-30T17:30:17.416Z,20.50
2018-06-30T17:32:46.139Z,20.50
2018-06-30T17:35:14.910Z,20.50
2018-06-30T17:37:43.655Z,20.60
2018-06-30T17:40:13.072Z,21.00
2018-06-30T17:42:42.725Z,21.10
2018-06-30T17:45:11.553Z,21.30
2018-06-30T17:47:40.258Z,21.30
2018-06-30T17:50:09.221Z,21.10
2018-06-30T17:52:38.063Z,21.00
2018-06-30T17:55:07.586Z,21.30
2018-06-30T17:57:36.338Z,21.50
2018-06-30T18:00:06.289Z,21.60
2018-06-30T18:02:35.041Z,21.70
2018-06-30T18:05:04.786Z,21.60
2018-06-30T18:07:34.685Z,21.50
2018-06-30T18:10:03.677Z,21.20
2018-06-30T18:12:32.415Z,21.00
2018-06-30T18:15:01.131Z,20.80
2018-06-30T18:17:31.074Z,20.60
2018-06-30T18:20:00.567Z,20.30
2018-06-30T18:23:59.009Z,19.90
2018-06-30T18:26:27.848Z,19.70
2018-06-30T18:28:56.549Z,19.30
2018-06-30T18:31:25.269Z,19.20
2018-06-30T18:33:53.971Z,19.10
2018-06-30T18:36:23.635Z,19.00
2018-06-30T18:38:52.367Z,18.90
2018-06-30T18:41:21.831Z,18.80
2018-06-30T18:43:50.578Z,18.70
2018-06-30T18:46:19.407Z,18.70
2018-06-30T18:48:48.171Z,18.60
2018-06-30T18:51:16.901Z,18.50
2018-06-30T18:53:45.794Z,18.50
2018-06-30T18:56:14.586Z,18.60
2018-06-30T18:58:43.490Z,18.60
2018-06-30T19:01:13.232Z,18.50
2018-06-30T19:03:41.989Z,18.50
2018-06-30T19:06:12.264Z,18.40
2018-06-30T19:08:41.112Z,18.30
2018-06-30T19:11:09.811Z,18.20
2018-06-30T19:13:38.575Z,18.10
2018-06-30T19:16:07.927Z,18.10
2018-06-30T19:18:36.708Z,18.10
2018-06-30T19:21:05.524Z,18.00
2018-06-30T19:23:34.326Z,18.00
2018-06-30T19:26:03.199Z,18.00
2018-06-30T19:28:32.983Z,18.00
2018-06-30T19:31:01.716Z,17.90
2018-06-30T19:33:30.493Z,17.90
2018-06-30T19:35:59.336Z,17.80
2018-06-30T19:38:28.129Z,17.80
2018-06-30T19:40:56.872Z,17.70
2018-06-30T19:43:26.731Z,17.70
2018-06-30T19:45:55.471Z,17.60
2018-06-30T19:48:24.295Z,17.50
2018-06-30T19:50:53.031Z,17.50
2018-06-30T19:53:21.777Z,17.40
2018-06-30T19:55:50.561Z,17.30
2018-06-30T19:58:20.133Z,17.30
2018-06-30T20:00:49.017Z,17.30
2018-06-30T20:03:17.820Z,17.20
2018-06-30T20:05:46.540Z,17.20
2018-06-30T20:08:15.418Z,17.20
2018-06-30T20:10:45.110Z,17.10
2018-06-30T20:13:13.828Z,17.00
2018-06-30T20:15:43.347Z,17.00
2018-06-30T20:18:12.068Z,16.80
2018-06-30T20:20:40.696Z,16.70
2018-06-30T20:23:09.464Z,16.70
2018-06-30T20:25:38.170Z,16.60
2018-06-30T20:28:06.984Z,16.50
2018-06-30T20:30:35.745Z,16.50
2018-06-30T20:33:04.513Z,16.50
2018-06-30T20:35:33.391Z,16.50
2018-06-30T20:38:03.157Z,16.50
2018-06-30T20:40:31.888Z,16.40
2018-06-30T20:45:29.662Z,16.30
2018-06-30T20:47:59.147Z,16.30
2018-06-30T20:50:28.098Z,16.20
2018-06-30T20:52:56.958Z,16.10
2018-06-30T20:55:25.729Z,16.00
2018-06-30T20:57:54.458Z,15.90
2018-06-30T21:00:23.184Z,15.90
2018-06-30T21:02:51.919Z,15.80
2018-06-30T21:05:20.680Z,15.70
2018-06-30T21:07:49.648Z,15.70
2018-06-30T21:10:18.391Z,15.50
2018-06-30T21:12:48.453Z,15.60
2018-06-30T21:15:18.031Z,15.50
2018-06-30T21:17:46.833Z,15.50
2018-06-30T21:20:16.803Z,15.40
2018-06-30T21:22:47.026Z,15.40
2018-06-30T21:25:16.773Z,15.40
2018-06-30T21:27:45.525Z,15.40
2018-06-30T21:30:14.453Z,15.40
2018-06-30T21:32:43.942Z,15.30
2018-06-30T21:35:14.011Z,15.20
2018-06-30T21:37:42.730Z,15.20
2018-06-30T21:40:11.528Z,15.20
2018-06-30T21:42:41.256Z,15.10
2018-06-30T21:45:10.796Z,14.90
2018-06-30T21:47:39.532Z,14.80
2018-06-30T21:50:09.393Z,14.80
2018-06-30T21:52:38.244Z,14.70
2018-06-30T21:55:07.317Z,14.70
2018-06-30T21:57:37.096Z,14.70
2018-06-30T22:00:09.663Z,14.60
2018-06-30T22:02:38.336Z,14.40
2018-06-30T22:05:07.137Z,14.40
2018-06-30T22:07:35.950Z,14.40
2018-06-30T22:10:05.891Z,14.30
2018-06-30T22:12:35.169Z,14.20
2018-06-30T22:15:04.221Z,14.10
2018-06-30T22:17:33.524Z,14.00
2018-06-30T22:20:02.244Z,13.90
2018-06-30T22:22:32.178Z,13.70
2018-06-30T22:25:02.073Z,13.60
2018-06-30T22:27:30.945Z,13.40
2018-06-30T22:29:59.726Z,13.30
2018-06-30T22:32:28.471Z,13.20
2018-06-30T22:34:57.249Z,13.00
2018-06-30T22:37:27.126Z,12.90
2018-06-30T22:40:06.908Z,12.80
2018-06-30T22:42:35.707Z,12.70
2018-06-30T22:45:05.148Z,12.70
2018-06-30T22:47:33.915Z,12.60
2018-06-30T22:50:02.682Z,12.60
2018-06-30T22:52:32.775Z,12.50
2018-06-30T22:55:01.504Z,12.40
2018-06-30T22:57:30.288Z,12.40
2018-06-30T22:59:58.984Z,12.40
2018-06-30T23:02:29.133Z,12.40
2018-06-30T23:04:57.885Z,12.40
2018-06-30T23:07:26.651Z,12.30
2018-06-30T23:09:55.449Z,12.30
2018-06-30T23:12:24.247Z,12.20
2018-06-30T23:14:53.099Z,12.10
2018-06-30T23:17:22.894Z,12.10
2018-06-30T23:19:51.627Z,12.00
2018-06-30T23:22:47.725Z,12.00
2018-06-30T23:25:16.607Z,11.90
2018-06-30T23:27:45.298Z,11.90
2018-06-30T23:30:14.038Z,11.80
2018-06-30T23:32:42.772Z,11.70
2018-06-30T23:35:12.784Z,11.70
2018-06-30T23:37:41.509Z,11.60
2018-06-30T23:40:11.152Z,11.60
2018-06-30T23:42:39.955Z,11.50
2018-06-30T23:45:09.557Z,11.50
2018-06-30T23:47:39.216Z,11.40
2018-06-30T23:50:08.013Z,11.30
2018-06-30T23:52:36.976Z,11.30
2018-06-30T23:55:06.545Z,11.20
2018-06-30T23:57:36.248Z,11.10
